Aviation Digital Data Service (ADDS)

Output produced by METARs form (1331 UTC 21 October 2014)
found at http://www.aviationweather.gov/adds/metars/
 
KAOO 211253Z AUTO 25006KT 10SM FEW020 BKN027 OVC036 11/09 A2987 RMK AO2 SLP118 T01060089
KAOO 211153Z AUTO 23004KT 10SM OVC018 09/08 A2986 RMK AO2 SLP114 60000 T00940083 10106 20083 53004
KAOO 211106Z AUTO 23003KT 10SM BKN019 BKN030 OVC042 10/08 A2985 RMK AO2 T01000078
KAOO 211053Z AUTO 21005KT 10SM FEW020 BKN032 OVC042 09/07 A2984 RMK AO2 SLP109 T00940072
KAOO 211023Z AUTO 00000KT 10SM BKN025 OVC031 09/07 A2984 RMK AO2 T00940072
KAOO 210953Z AUTO 22005KT 10SM OVC039 09/07 A2984 RMK AO2 SLP109 T00940072
KAOO 210853Z AUTO 22006KT 10SM FEW029 OVC070 09/07 A2985 RMK AO2 SLP110 60000 T00940072 56006
KAOO 210753Z AUTO 20005KT 10SM FEW027 BKN060 OVC100 09/07 A2985 RMK AO2 RAB02E33 SLP109 P0000 T00940067
KAOO 210653Z AUTO 22003KT 10SM BKN046 OVC100 11/06 A2986 RMK AO2 SLP112 T01060061
KAOO 210553Z AUTO 20005KT 10SM BKN043 OVC049 10/06 A2987 RMK AO2 SLP116 60000 T01000061 10106 20089 58014
KAOO 210453Z AUTO 22004KT 10SM OVC045 10/06 A2988 RMK AO2 SLP121 T01000061 401330050
KAOO 210353Z AUTO 20004KT 10SM SCT033 BKN042 OVC070 09/06 A2990 RMK AO2 SLP127 T00940061
KAOO 210253Z AUTO 21004KT 10SM SCT050 OVC075 09/06 A2991 RMK AO2 RAB31E42 SLP132 P0000 60000 T00940056 58003
KAOO 210153Z AUTO 00000KT 10SM SCT060 OVC100 09/06 A2991 RMK AO2 SLP134 T00940061
KAOO 210053Z AUTO 00000KT 10SM SCT055 OVC090 09/06 A2992 RMK AO2 SLP136 T00940061
KAOO 202353Z AUTO 14003KT 10SM OVC085 10/06 A2992 RMK AO2 SLP136 60000 T01000056 10128 20094 56002
KAOO 202253Z AUTO 00000KT 10SM OVC075 10/06 A2992 RMK AO2 SLP137 T01000061
KAOO 202153Z AUTO 22007KT 10SM SCT075 OVC100 10/06 A2992 RMK AO2 SLP137 T01000056
KAOO 202053Z AUTO 20005KT 10SM BKN070 OVC085 11/05 A2992 RMK AO2 RAB1956E41 SLP138 P0000 60000 T01060050 56008
KAOO 201953Z AUTO 21008KT 10SM FEW055 SCT065 OVC090 12/04 A2993 RMK AO2 SLP138 T01170039
KAOO 201853Z AUTO 21011KT 10SM BKN100 12/03 A2994 RMK AO2 SLP141 T01220033
KAOO 201753Z AUTO 21010KT 10SM FEW120 12/04 A2995 RMK AO2 SLP146 T01220039 10133 20061 56028
KAOO 201653Z AUTO 19007KT 10SM CLR 12/04 A2997 RMK AO2 SLP152 T01220039
KAOO 201553Z AUTO 20006KT 10SM CLR 12/04 A3001 RMK AO2 SLP169 T01170039
KAOO 201453Z AUTO 20006KT 10SM CLR 09/03 A3003 RMK AO2 SLP177 T00940033 58005
KAOO 201353Z AUTO 22005KT 10SM FEW120 08/03 A3005 RMK AO2 SLP183 T00830033
KAOO 201253Z AUTO 19006KT 10SM CLR 08/03 A3005 RMK AO2 SLP184 T00780028
KAOO 201153Z AUTO 20004KT 9SM CLR 06/02 A3005 RMK AO2 SLP184 T00610022 10067 20050 55000
KAOO 201053Z AUTO 21004KT 10SM CLR 05/02 A3004 RMK AO2 SLP182 T00500022
KAOO 200953Z AUTO 20008KT 10SM CLR 06/02 A3005 RMK AO2 SLP182 T00610017
KAOO 200853Z AUTO 22005KT 10SM CLR 06/02 A3005 RMK AO2 SLP182 T00560022 55004
KAOO 200753Z AUTO 20007KT 10SM CLR 06/02 A3005 RMK AO2 SLP179 T00610022
KAOO 200653Z AUTO 21006KT 10SM CLR 06/02 A3006 RMK AO2 SLP185 T00560017
KAOO 200553Z AUTO 21007KT 10SM CLR 05/02 A3006 RMK AO2 SLP187 T00500017 10072 20044 56003
KAOO 200453Z AUTO 19003KT 10SM CLR 06/02 A3006 RMK AO2 SLP187 T00560017 401110039
KAOO 200353Z AUTO 21005KT 10SM CLR 05/01 A3007 RMK AO2 SLP191 T00500011
KAOO 200253Z AUTO 20005KT 10SM CLR 06/01 A3007 RMK AO2 SLP193 T00560006 55002
KAOO 200153Z AUTO 26006KT 10SM CLR 04/01 A3007 RMK AO2 SLP194 T00440006